Time;durP1;ratioP1;P1;durP2;ratioP2;P2;SDS_P1;SDS_P2;PMS_P1;PMS_P2;Temp;Humidity;BMP_temperature;BMP_pressure;BME280_temperature;BME280_humidity;BME280_pressure;Samples;Min_cycle;Max_cycle;Signal;HPM_P1;HPM_P2
2022/07/29 00:01:18;;;;;;;;;;;28.40;38.30;;;;;;8367106;28;19934;-45
2022/07/29 00:05:18;;;;;;;;;;;28.40;38.20;;;;;;8366831;28;19924;-44
2022/07/29 00:09:18;;;;;;;;;;;28.40;38.30;;;;;;8367399;28;20377;-45
2022/07/29 00:13:19;;;;;;;;;;;28.40;38.30;;;;;;8366824;28;19920;-45
2022/07/29 00:17:19;;;;;;;;;;;28.40;38.90;;;;;;8366360;28;19917;-44
2022/07/29 00:21:20;;;;;;;;;;;28.40;38.30;;;;;;8366584;28;19917;-45
2022/07/29 00:25:21;;;;;;;;;;;28.40;38.30;;;;;;8366567;28;20332;-45
2022/07/29 00:29:21;;;;;;;;;;;28.30;38.30;;;;;;8366113;28;19920;-44
2022/07/29 00:33:23;;;;;;;;;;;28.30;38.30;;;;;;8366217;28;19943;-45
2022/07/29 00:37:24;;;;;;;;;;;28.30;38.30;;;;;;8366078;28;19932;-45
2022/07/29 00:41:24;;;;;;;;;;;28.30;38.30;;;;;;8371069;28;19917;-45
2022/07/29 00:45:25;;;;;;;;;;;28.30;38.30;;;;;;8397981;28;19955;-44
2022/07/29 00:49:25;;;;;;;;;;;28.30;38.30;;;;;;8366125;28;19913;-44
2022/07/29 00:53:26;;;;;;;;;;;28.30;38.30;;;;;;8365130;28;20468;-44
2022/07/29 00:57:26;;;;;;;;;;;28.30;38.40;;;;;;8365767;28;19923;-43
2022/07/29 01:01:28;;;;;;;;;;;28.30;38.30;;;;;;8365193;28;19928;-45
2022/07/29 01:05:29;;;;;;;;;;;28.30;38.40;;;;;;8364798;28;19917;-45
2022/07/29 01:09:31;;;;;;;;;;;28.20;38.40;;;;;;8364074;28;20004;-44
2022/07/29 01:13:33;;;;;;;;;;;28.20;38.40;;;;;;8365044;28;20417;-45
2022/07/29 01:17:51;;;;;;;;;;;28.20;38.30;;;;;;8364307;28;19921;-45
2022/07/29 01:21:57;;;;;;;;;;;28.20;38.40;;;;;;8364474;28;19971;-45
2022/07/29 01:26:00;;;;;;;;;;;28.20;38.40;;;;;;8364084;28;19916;-44
2022/07/29 01:30:01;;;;;;;;;;;28.20;38.40;;;;;;8364675;28;19913;-44
2022/07/29 01:34:04;;;;;;;;;;;28.20;38.40;;;;;;8363826;28;19916;-44
2022/07/29 01:38:09;;;;;;;;;;;28.20;38.40;;;;;;8363702;28;19952;-44
2022/07/29 01:42:29;;;;;;;;;;;28.20;38.40;;;;;;8364252;28;19932;-44
2022/07/29 01:46:32;;;;;;;;;;;28.10;38.30;;;;;;8363681;28;19921;-44
2022/07/29 01:50:34;;;;;;;;;;;28.10;38.40;;;;;;8363684;28;19913;-44
2022/07/29 01:54:46;;;;;;;;;;;28.20;38.50;;;;;;8364106;28;20011;-45
2022/07/29 01:58:47;;;;;;;;;;;28.10;38.40;;;;;;8363164;28;19917;-44
2022/07/29 02:02:49;;;;;;;;;;;28.10;38.40;;;;;;8363435;28;19928;-44
2022/07/29 02:06:51;;;;;;;;;;;28.10;38.40;;;;;;8363601;28;19924;-45
2022/07/29 02:10:52;;;;;;;;;;;28.10;38.40;;;;;;8363013;28;19940;-44
2022/07/29 02:14:53;;;;;;;;;;;28.10;38.50;;;;;;8363802;28;19925;-45
2022/07/29 02:18:55;;;;;;;;;;;28.10;38.50;;;;;;8363302;28;19939;-44
2022/07/29 02:22:57;;;;;;;;;;;28.10;38.50;;;;;;8362578;28;19921;-44
2022/07/29 02:26:58;;;;;;;;;;;28.10;38.50;;;;;;8363164;28;19971;-45
2022/07/29 02:31:00;;;;;;;;;;;28.10;38.50;;;;;;8363041;28;19917;-45
2022/07/29 02:35:01;;;;;;;;;;;28.10;38.50;;;;;;8362852;28;20381;-45
2022/07/29 02:39:03;;;;;;;;;;;28.10;38.50;;;;;;8362959;28;19944;-44
2022/07/29 02:43:05;;;;;;;;;;;28.10;38.50;;;;;;8362895;28;20382;-44
2022/07/29 02:47:18;;;;;;;;;;;28.10;38.60;;;;;;8364429;28;19917;-45
2022/07/29 02:51:22;;;;;;;;;;;28.10;38.60;;;;;;8369626;28;19975;-45
2022/07/29 02:55:31;;;;;;;;;;;28.00;38.50;;;;;;8369528;28;19924;-45
2022/07/29 02:59:34;;;;;;;;;;;28.00;38.50;;;;;;8368760;28;19916;-45
2022/07/29 03:03:36;;;;;;;;;;;28.00;38.60;;;;;;8368836;28;19936;-45
2022/07/29 03:07:37;;;;;;;;;;;28.00;38.60;;;;;;8368948;28;19913;-45
2022/07/29 03:11:38;;;;;;;;;;;28.00;38.60;;;;;;8368347;28;19916;-44
2022/07/29 03:15:39;;;;;;;;;;;28.00;38.60;;;;;;8368671;28;20436;-44
2022/07/29 03:19:39;;;;;;;;;;;28.00;38.60;;;;;;8368535;28;19916;-45
2022/07/29 03:23:43;;;;;;;;;;;28.00;38.60;;;;;;8367984;28;20376;-45
2022/07/29 03:27:44;;;;;;;;;;;28.00;38.60;;;;;;8368445;28;20043;-45
2022/07/29 03:31:45;;;;;;;;;;;27.90;38.60;;;;;;8367472;28;19999;-45
2022/07/29 03:35:45;;;;;;;;;;;28.00;38.60;;;;;;8368177;28;19920;-45
2022/07/29 03:39:47;;;;;;;;;;;28.00;38.70;;;;;;8368212;28;19917;-43
2022/07/29 03:43:49;;;;;;;;;;;27.90;38.70;;;;;;8367135;28;19957;-44
2022/07/29 03:47:51;;;;;;;;;;;27.90;38.60;;;;;;8367528;28;19952;-44
2022/07/29 03:51:52;;;;;;;;;;;27.90;38.70;;;;;;8367667;28;19921;-44
2022/07/29 03:55:56;;;;;;;;;;;27.90;38.70;;;;;;8367110;28;19923;-44
2022/07/29 03:59:56;;;;;;;;;;;27.90;38.70;;;;;;8366894;28;19955;-44
2022/07/29 04:03:57;;;;;;;;;;;27.90;38.70;;;;;;8367212;28;20348;-44
2022/07/29 04:07:57;;;;;;;;;;;27.90;38.70;;;;;;8365521;28;19971;-45
2022/07/29 04:11:58;;;;;;;;;;;27.90;38.80;;;;;;8366909;28;20012;-45
2022/07/29 04:15:58;;;;;;;;;;;27.90;38.80;;;;;;8367064;28;19924;-45
2022/07/29 04:19:59;;;;;;;;;;;27.90;38.80;;;;;;8366410;28;19913;-45
2022/07/29 04:23:59;;;;;;;;;;;27.80;38.70;;;;;;8366848;28;19925;-45
2022/07/29 04:28:00;;;;;;;;;;;27.90;38.80;;;;;;8366462;28;19917;-46
2022/07/29 04:32:00;;;;;;;;;;;27.90;38.80;;;;;;8365860;28;19913;-45
2022/07/29 04:36:00;;;;;;;;;;;27.90;38.80;;;;;;8366632;28;20370;-44
2022/07/29 04:40:01;;;;;;;;;;;27.80;39.30;;;;;;8366052;28;19917;-46
2022/07/29 04:44:04;;;;;;;;;;;27.80;38.80;;;;;;8365375;28;19932;-45
2022/07/29 04:48:05;;;;;;;;;;;27.80;38.80;;;;;;8366003;28;19916;-45
2022/07/29 04:52:05;;;;;;;;;;;27.80;38.80;;;;;;8365766;28;19913;-45
2022/07/29 04:56:06;;;;;;;;;;;27.80;38.80;;;;;;8365251;28;20405;-44
2022/07/29 05:00:07;;;;;;;;;;;27.80;39.40;;;;;;8365394;28;20341;-46
2022/07/29 05:04:08;;;;;;;;;;;27.80;38.90;;;;;;8365059;28;20385;-46
2022/07/29 05:08:08;;;;;;;;;;;27.80;38.80;;;;;;8364523;28;19939;-45
2022/07/29 05:12:09;;;;;;;;;;;27.80;38.80;;;;;;8364175;28;19925;-45
2022/07/29 05:16:10;;;;;;;;;;;27.80;38.90;;;;;;8365064;28;19932;-45
2022/07/29 05:20:10;;;;;;;;;;;27.80;38.90;;;;;;8364347;28;19917;-46
2022/07/29 05:24:11;;;;;;;;;;;27.80;38.90;;;;;;8364499;28;19932;-45
2022/07/29 05:28:11;;;;;;;;;;;27.80;38.90;;;;;;8364480;28;19916;-45
2022/07/29 05:32:12;;;;;;;;;;;27.80;38.90;;;;;;8364023;28;19978;-45
2022/07/29 05:36:12;;;;;;;;;;;27.70;38.80;;;;;;8364449;28;19987;-45
2022/07/29 05:40:13;;;;;;;;;;;27.80;38.90;;;;;;8364686;28;19970;-45
2022/07/29 05:44:14;;;;;;;;;;;27.80;38.90;;;;;;8363462;28;19932;-45
2022/07/29 05:48:14;;;;;;;;;;;27.80;38.90;;;;;;8364190;28;19912;-45
2022/07/29 05:52:15;;;;;;;;;;;27.80;38.90;;;;;;8364005;28;20010;-45
2022/07/29 05:56:15;;;;;;;;;;;27.80;38.90;;;;;;8363224;28;19917;-45
2022/07/29 06:00:16;;;;;;;;;;;27.80;38.90;;;;;;8363578;28;20289;-45
2022/07/29 06:04:16;;;;;;;;;;;27.80;38.90;;;;;;8363298;28;19932;-45
2022/07/29 06:08:17;;;;;;;;;;;27.80;38.90;;;;;;8362998;28;19975;-45
2022/07/29 06:12:17;;;;;;;;;;;27.80;38.90;;;;;;8363879;28;19913;-45
2022/07/29 06:16:18;;;;;;;;;;;27.80;38.80;;;;;;8363394;28;19925;-46
2022/07/29 06:20:19;;;;;;;;;;;27.80;38.90;;;;;;8362743;28;20019;-45
2022/07/29 06:24:19;;;;;;;;;;;27.80;38.80;;;;;;8363049;28;19924;-45
2022/07/29 06:28:20;;;;;;;;;;;27.80;38.80;;;;;;8363100;28;20395;-45
2022/07/29 06:32:21;;;;;;;;;;;27.80;38.80;;;;;;8362732;28;19956;-45
2022/07/29 06:36:21;;;;;;;;;;;27.80;38.80;;;;;;8362816;28;19917;-45
2022/07/29 06:44:42;;;;;;;;;;;27.80;38.80;;;;;;8362445;28;19970;-45
2022/07/29 06:48:42;;;;;;;;;;;27.80;38.80;;;;;;8362864;28;20366;-46
2022/07/29 06:52:43;;;;;;;;;;;27.80;38.80;;;;;;8362394;28;19927;-45
2022/07/29 06:56:43;;;;;;;;;;;27.80;38.80;;;;;;8362752;28;20004;-45
2022/07/29 07:00:44;;;;;;;;;;;27.80;38.80;;;;;;8362511;28;19917;-46
2022/07/29 07:04:45;;;;;;;;;;;27.80;38.80;;;;;;8362210;28;20019;-45
2022/07/29 07:08:46;;;;;;;;;;;27.80;38.80;;;;;;8362787;28;19959;-45
2022/07/29 07:12:46;;;;;;;;;;;27.80;38.80;;;;;;8329884;28;19918;-45
2022/07/29 07:16:47;;;;;;;;;;;27.80;38.80;;;;;;8361085;28;19928;-45
2022/07/29 07:20:47;;;;;;;;;;;27.80;38.90;;;;;;8362617;28;20421;-45
2022/07/29 07:24:48;;;;;;;;;;;27.80;38.80;;;;;;8362272;28;19928;-45
2022/07/29 07:28:48;;;;;;;;;;;27.90;38.90;;;;;;8362216;28;19928;-44
2022/07/29 07:32:49;;;;;;;;;;;27.90;38.90;;;;;;8363674;28;19960;-45
2022/07/29 07:36:49;;;;;;;;;;;27.80;38.90;;;;;;8399496;28;20339;-44
2022/07/29 07:40:50;;;;;;;;;;;27.90;38.90;;;;;;8400512;28;20289;-45
2022/07/29 07:44:50;;;;;;;;;;;27.90;38.90;;;;;;8401079;28;20011;-44
2022/07/29 07:48:52;;;;;;;;;;;27.90;39.00;;;;;;8400766;28;19924;-45
2022/07/29 07:52:54;;;;;;;;;;;27.90;38.90;;;;;;8400496;28;20325;-44
2022/07/29 07:56:54;;;;;;;;;;;27.90;38.90;;;;;;8400382;28;19916;-45
2022/07/29 08:00:55;;;;;;;;;;;27.90;39.00;;;;;;8400205;28;19916;-45
2022/07/29 08:04:55;;;;;;;;;;;27.90;39.00;;;;;;8399834;28;19928;-44
2022/07/29 08:08:56;;;;;;;;;;;27.90;39.00;;;;;;8400162;28;20626;-45
2022/07/29 08:12:56;;;;;;;;;;;27.90;39.00;;;;;;8400171;28;19996;-45
2022/07/29 08:16:56;;;;;;;;;;;27.90;39.00;;;;;;8399569;28;19920;-45
2022/07/29 08:20:57;;;;;;;;;;;27.90;39.00;;;;;;8399810;28;20270;-46
2022/07/29 08:24:58;;;;;;;;;;;27.90;39.10;;;;;;8399625;28;19975;-45
2022/07/29 08:28:58;;;;;;;;;;;27.90;39.10;;;;;;8398966;28;20324;-44
2022/07/29 08:32:59;;;;;;;;;;;27.90;39.00;;;;;;8399763;28;19977;-45
2022/07/29 08:36:59;;;;;;;;;;;27.90;39.00;;;;;;8399560;28;20015;-46
2022/07/29 08:41:00;;;;;;;;;;;27.90;39.00;;;;;;8398587;28;19925;-44
2022/07/29 08:45:01;;;;;;;;;;;27.90;39.00;;;;;;8397614;28;19948;-44
2022/07/29 08:49:02;;;;;;;;;;;27.90;39.10;;;;;;8398781;28;19916;-45
2022/07/29 08:53:02;;;;;;;;;;;27.90;39.10;;;;;;8398277;28;19920;-45
2022/07/29 08:57:03;;;;;;;;;;;27.90;39.10;;;;;;8398595;28;20276;-45
2022/07/29 09:01:03;;;;;;;;;;;27.90;39.10;;;;;;8398287;28;19920;-45
2022/07/29 09:05:04;;;;;;;;;;;27.90;39.10;;;;;;8397801;28;19931;-46
2022/07/29 09:09:07;;;;;;;;;;;27.90;39.10;;;;;;8380175;28;19916;-46
2022/07/29 09:13:08;;;;;;;;;;;27.90;39.20;;;;;;8398198;28;19912;-45
2022/07/29 09:17:08;;;;;;;;;;;27.80;39.10;;;;;;8397443;28;19917;-46
2022/07/29 09:25:36;;;;;;;;;;;27.90;39.10;;;;;;8397789;28;20005;-46
2022/07/29 09:29:37;;;;;;;;;;;27.90;39.10;;;;;;8397006;28;19917;-46
2022/07/29 09:33:41;;;;;;;;;;;27.90;39.10;;;;;;8397467;28;19916;-46
2022/07/29 09:37:43;;;;;;;;;;;27.90;39.10;;;;;;8396865;28;19923;-46
2022/07/29 09:41:54;;;;;;;;;;;27.90;39.10;;;;;;8397332;28;20384;-47
2022/07/29 09:45:55;;;;;;;;;;;27.90;39.10;;;;;;8397424;28;20010;-45
2022/07/29 09:49:57;;;;;;;;;;;27.90;39.10;;;;;;8396521;28;19924;-45
2022/07/29 09:54:00;;;;;;;;;;;27.90;39.10;;;;;;8396936;28;20396;-46
2022/07/29 09:58:16;;;;;;;;;;;28.00;39.10;;;;;;8396811;28;20356;-45
2022/07/29 10:02:17;;;;;;;;;;;28.00;39.00;;;;;;8396233;28;19935;-45
2022/07/29 10:06:18;;;;;;;;;;;28.00;39.00;;;;;;8393780;28;19916;-45
2022/07/29 10:10:19;;;;;;;;;;;28.00;39.00;;;;;;8363654;28;19920;-46
2022/07/29 10:14:20;;;;;;;;;;;28.00;39.00;;;;;;8363075;28;19921;-45
2022/07/29 10:18:20;;;;;;;;;;;28.00;39.00;;;;;;8363610;28;19924;-46
2022/07/29 10:22:21;;;;;;;;;;;28.10;39.00;;;;;;8363162;28;20023;-44
2022/07/29 10:26:22;;;;;;;;;;;28.10;39.00;;;;;;8344801;28;19946;-47
2022/07/29 10:30:24;;;;;;;;;;;28.10;39.00;;;;;;8363202;28;19917;-45
2022/07/29 10:34:45;;;;;;;;;;;28.10;39.00;;;;;;8363301;28;19912;-44
2022/07/29 10:39:10;;;;;;;;;;;28.20;39.00;;;;;;8362598;28;19912;-45
2022/07/29 10:43:37;;;;;;;;;;;28.10;38.90;;;;;;8362777;28;19924;-45
2022/07/29 10:47:38;;;;;;;;;;;28.10;39.00;;;;;;8341343;28;19917;-47
2022/07/29 10:51:55;;;;;;;;;;;28.20;39.00;;;;;;8362918;28;19921;-46
2022/07/29 10:55:56;;;;;;;;;;;28.20;38.90;;;;;;8362254;28;19945;-45
2022/07/29 11:00:08;;;;;;;;;;;28.20;38.90;;;;;;8367391;28;20373;-48
2022/07/29 11:04:09;;;;;;;;;;;28.20;38.90;;;;;;8395952;28;19924;-49
2022/07/29 11:08:12;;;;;;;;;;;28.20;38.90;;;;;;8397075;28;19935;-45
2022/07/29 11:12:31;;;;;;;;;;;28.20;38.90;;;;;;8401843;28;19916;-46
2022/07/29 11:16:55;;;;;;;;;;;28.20;38.90;;;;;;8401854;28;19927;-46
2022/07/29 11:20:55;;;;;;;;;;;28.20;38.90;;;;;;8393109;28;19943;-45
2022/07/29 11:25:15;;;;;;;;;;;28.20;38.90;;;;;;8401394;28;19932;-46
2022/07/29 11:29:18;;;;;;;;;;;28.20;38.80;;;;;;8401190;28;19913;-46
2022/07/29 11:33:31;;;;;;;;;;;28.30;38.90;;;;;;8401508;28;20019;-45
2022/07/29 11:37:32;;;;;;;;;;;28.30;38.90;;;;;;8401196;28;19917;-46
2022/07/29 11:41:36;;;;;;;;;;;28.30;38.80;;;;;;8400509;28;19947;-46
2022/07/29 11:45:45;;;;;;;;;;;28.30;38.60;;;;;;8400851;28;19924;-45
2022/07/29 11:49:46;;;;;;;;;;;28.30;38.50;;;;;;8400450;28;20300;-45
2022/07/29 11:53:47;;;;;;;;;;;28.30;38.50;;;;;;8400908;28;19920;-45
2022/07/29 11:57:55;;;;;;;;;;;28.30;38.40;;;;;;8400693;28;20027;-46
2022/07/29 12:01:56;;;;;;;;;;;28.30;38.40;;;;;;8399825;28;19927;-46
2022/07/29 12:05:57;;;;;;;;;;;28.30;38.30;;;;;;8400344;28;19927;-47
2022/07/29 12:09:57;;;;;;;;;;;28.30;38.30;;;;;;8400211;28;19913;-46
2022/07/29 12:13:58;;;;;;;;;;;28.30;38.40;;;;;;8399853;28;19946;-46
2022/07/29 12:17:58;;;;;;;;;;;28.30;38.30;;;;;;8399558;28;20066;-46
2022/07/29 12:21:59;;;;;;;;;;;28.30;38.30;;;;;;8399843;28;19932;-46
2022/07/29 12:26:00;;;;;;;;;;;28.30;38.30;;;;;;8399058;28;19924;-45
2022/07/29 12:30:02;;;;;;;;;;;28.30;38.20;;;;;;8399595;28;20293;-47
2022/07/29 12:34:02;;;;;;;;;;;28.30;38.30;;;;;;8399616;28;20423;-46
2022/07/29 12:38:03;;;;;;;;;;;28.30;38.30;;;;;;8398772;28;19921;-46
2022/07/29 12:42:13;;;;;;;;;;;28.30;38.30;;;;;;8398901;28;19928;-45
2022/07/29 12:46:14;;;;;;;;;;;28.30;38.30;;;;;;8399104;28;20354;-45
2022/07/29 12:50:17;;;;;;;;;;;28.30;38.30;;;;;;8398358;28;19917;-45
2022/07/29 12:54:17;;;;;;;;;;;28.30;38.30;;;;;;8380930;28;20451;-45
2022/07/29 12:58:28;;;;;;;;;;;28.30;38.30;;;;;;8398768;28;19917;-45
2022/07/29 13:02:28;;;;;;;;;;;28.30;38.30;;;;;;8397805;28;19925;-46
2022/07/29 13:06:40;;;;;;;;;;;28.30;38.30;;;;;;8398257;28;19920;-44
2022/07/29 13:10:41;;;;;;;;;;;28.30;38.30;;;;;;8352638;28;19940;-42
2022/07/29 13:14:43;;;;;;;;;;;28.30;38.30;;;;;;8365810;28;19964;-46
2022/07/29 13:18:43;;;;;;;;;;;28.30;38.30;;;;;;8364825;28;20044;-46
2022/07/29 13:22:47;;;;;;;;;;;28.20;38.30;;;;;;8333979;28;19921;-45
2022/07/29 13:26:47;;;;;;;;;;;28.20;38.30;;;;;;8349066;28;19963;-45
2022/07/29 13:30:47;;;;;;;;;;;28.30;38.30;;;;;;8363484;28;19917;-45
2022/07/29 13:34:48;;;;;;;;;;;28.20;38.20;;;;;;8359407;28;19913;-45
2022/07/29 13:38:48;;;;;;;;;;;28.30;38.30;;;;;;8374189;28;19921;-45
2022/07/29 13:42:50;;;;;;;;;;;28.20;38.30;;;;;;8355817;28;19929;-45
2022/07/29 13:46:50;;;;;;;;;;;28.30;38.30;;;;;;8360833;28;20043;-46
2022/07/29 13:50:51;;;;;;;;;;;28.20;38.20;;;;;;8351270;28;19946;-45
2022/07/29 13:54:51;;;;;;;;;;;28.20;38.20;;;;;;8357948;28;19923;-45
2022/07/29 13:58:51;;;;;;;;;;;28.20;38.20;;;;;;8355025;28;19917;-45
2022/07/29 14:02:52;;;;;;;;;;;28.30;38.30;;;;;;8376953;28;19924;-45
2022/07/29 14:06:52;;;;;;;;;;;28.20;38.20;;;;;;8350938;28;19913;-46
2022/07/29 14:10:53;;;;;;;;;;;28.20;38.20;;;;;;8359414;28;20389;-45
2022/07/29 14:14:53;;;;;;;;;;;28.20;38.20;;;;;;8353911;28;19944;-47
2022/07/29 14:18:54;;;;;;;;;;;28.20;38.20;;;;;;8350731;28;20340;-46
2022/07/29 14:22:54;;;;;;;;;;;28.20;38.20;;;;;;8349815;28;19924;-45
2022/07/29 14:26:55;;;;;;;;;;;28.20;38.20;;;;;;8355736;28;19920;-45
2022/07/29 14:30:55;;;;;;;;;;;28.20;38.20;;;;;;8360327;28;19952;-46
2022/07/29 14:34:57;;;;;;;;;;;28.20;38.10;;;;;;8359140;28;20281;-46
2022/07/29 14:38:58;;;;;;;;;;;28.20;38.10;;;;;;8357467;28;19923;-46
2022/07/29 14:42:58;;;;;;;;;;;28.20;38.10;;;;;;8344026;28;19932;-45
2022/07/29 14:46:59;;;;;;;;;;;28.20;38.10;;;;;;8367268;28;20349;-45
2022/07/29 14:51:00;;;;;;;;;;;28.20;38.10;;;;;;8337037;28;20013;-45
2022/07/29 14:55:00;;;;;;;;;;;28.20;38.10;;;;;;8343818;28;20313;-45
2022/07/29 14:59:01;;;;;;;;;;;28.20;38.10;;;;;;8345298;28;20353;-45
2022/07/29 15:03:02;;;;;;;;;;;28.20;38.00;;;;;;8352587;28;19928;-45
2022/07/29 15:07:02;;;;;;;;;;;28.20;38.00;;;;;;8368652;28;19964;-46
2022/07/29 15:11:03;;;;;;;;;;;28.20;38.00;;;;;;8368357;28;19917;-46
2022/07/29 15:15:03;;;;;;;;;;;28.20;38.00;;;;;;8402100;28;20099;-45
2022/07/29 15:19:04;;;;;;;;;;;28.20;38.00;;;;;;8401621;28;20008;-45
2022/07/29 15:23:04;;;;;;;;;;;28.20;38.00;;;;;;8401002;28;19925;-45
2022/07/29 15:27:05;;;;;;;;;;;28.20;38.00;;;;;;8401528;28;19913;-45
2022/07/29 15:31:05;;;;;;;;;;;28.20;38.00;;;;;;8401708;28;19916;-44
2022/07/29 15:35:06;;;;;;;;;;;28.10;38.00;;;;;;8400849;28;19967;-46
2022/07/29 15:39:06;;;;;;;;;;;28.20;38.00;;;;;;8401432;28;19923;-45
2022/07/29 15:43:07;;;;;;;;;;;28.10;38.00;;;;;;8400876;28;20011;-45
2022/07/29 15:47:07;;;;;;;;;;;28.10;38.00;;;;;;8400504;28;20054;-45
2022/07/29 15:51:08;;;;;;;;;;;28.20;38.00;;;;;;8401330;28;20392;-45
2022/07/29 15:55:09;;;;;;;;;;;28.10;38.00;;;;;;8400117;28;19917;-44
2022/07/29 15:59:09;;;;;;;;;;;28.10;38.00;;;;;;8400138;28;20003;-46
2022/07/29 16:03:09;;;;;;;;;;;28.10;38.00;;;;;;8400388;28;19928;-46
2022/07/29 16:07:10;;;;;;;;;;;28.20;38.00;;;;;;8379510;28;19959;-45
2022/07/29 16:11:10;;;;;;;;;;;28.20;38.10;;;;;;8366961;28;20329;-45
2022/07/29 16:15:11;;;;;;;;;;;28.10;38.00;;;;;;8367043;28;19921;-45
2022/07/29 16:19:11;;;;;;;;;;;28.10;38.10;;;;;;8366772;28;19924;-45
2022/07/29 16:23:12;;;;;;;;;;;28.10;38.10;;;;;;8366066;28;19924;-47
2022/07/29 16:27:13;;;;;;;;;;;28.10;38.10;;;;;;8366698;28;19917;-46
2022/07/29 16:31:13;;;;;;;;;;;28.10;38.20;;;;;;8366583;28;19940;-45
2022/07/29 16:35:14;;;;;;;;;;;28.10;38.20;;;;;;8365840;28;19920;-45
2022/07/29 16:39:14;;;;;;;;;;;28.10;38.20;;;;;;8366369;28;19920;-45
2022/07/29 16:43:14;;;;;;;;;;;28.10;38.30;;;;;;8365885;28;19925;-45
2022/07/29 16:47:15;;;;;;;;;;;28.10;38.30;;;;;;8365593;28;20284;-45
2022/07/29 16:51:15;;;;;;;;;;;28.10;38.30;;;;;;8366377;28;20270;-45
2022/07/29 16:55:16;;;;;;;;;;;28.10;38.30;;;;;;8365844;28;19916;-46
2022/07/29 16:59:16;;;;;;;;;;;28.10;38.40;;;;;;8365045;28;20377;-44
2022/07/29 17:03:18;;;;;;;;;;;28.10;38.40;;;;;;8365396;28;19929;-44
2022/07/29 17:07:18;;;;;;;;;;;28.10;38.40;;;;;;8364364;28;20282;-44
2022/07/29 17:11:18;;;;;;;;;;;28.10;39.00;;;;;;8364921;28;19912;-45
2022/07/29 17:15:19;;;;;;;;;;;28.10;38.40;;;;;;8365294;28;20011;-45
2022/07/29 17:19:19;;;;;;;;;;;28.10;38.40;;;;;;8347126;28;19917;-44
2022/07/29 17:23:20;;;;;;;;;;;28.10;38.50;;;;;;8364257;28;19931;-44
2022/07/29 17:27:20;;;;;;;;;;;28.10;38.50;;;;;;8364900;28;19913;-45
2022/07/29 17:31:22;;;;;;;;;;;28.10;38.50;;;;;;8364781;28;19964;-46
2022/07/29 17:39:41;;;;;;;;;;;28.10;38.50;;;;;;8364608;28;19939;-45
2022/07/29 17:43:42;;;;;;;;;;;28.10;38.50;;;;;;8363612;28;19964;-44
2022/07/29 17:47:43;;;;;;;;;;;28.10;38.50;;;;;;8364406;28;19919;-46
2022/07/29 17:51:44;;;;;;;;;;;28.10;38.50;;;;;;8364385;28;19917;-44
2022/07/29 17:55:44;;;;;;;;;;;28.10;38.60;;;;;;8363422;28;19966;-44
2022/07/29 17:59:45;;;;;;;;;;;28.10;38.50;;;;;;8364026;28;19992;-45
2022/07/29 18:03:46;;;;;;;;;;;28.10;38.60;;;;;;8363563;28;19963;-47
2022/07/29 18:07:46;;;;;;;;;;;28.10;38.60;;;;;;8363006;28;19940;-46
2022/07/29 18:11:47;;;;;;;;;;;28.10;38.60;;;;;;8363969;28;20012;-44
2022/07/29 18:15:48;;;;;;;;;;;28.10;38.60;;;;;;8363280;28;20008;-45
2022/07/29 18:19:48;;;;;;;;;;;28.10;38.60;;;;;;8362762;28;19912;-45
2022/07/29 18:23:50;;;;;;;;;;;28.10;38.70;;;;;;8363064;28;19931;-45
2022/07/29 18:27:51;;;;;;;;;;;28.00;38.70;;;;;;8363115;28;19917;-44
2022/07/29 18:31:51;;;;;;;;;;;28.10;38.70;;;;;;8362946;28;19921;-46
2022/07/29 18:35:52;;;;;;;;;;;28.00;38.70;;;;;;8363056;28;19917;-44
2022/07/29 18:39:52;;;;;;;;;;;28.00;38.70;;;;;;8363236;28;19970;-45
2022/07/29 18:43:53;;;;;;;;;;;28.00;38.80;;;;;;8362365;28;20431;-47
2022/07/29 18:47:53;;;;;;;;;;;28.00;38.80;;;;;;8366141;28;19912;-45
2022/07/29 18:51:55;;;;;;;;;;;28.00;38.80;;;;;;8396460;28;19916;-45
2022/07/29 18:55:56;;;;;;;;;;;28.00;38.80;;;;;;8395433;28;19917;-45
2022/07/29 18:59:57;;;;;;;;;;;28.00;38.80;;;;;;8396181;28;20432;-44
2022/07/29 19:03:57;;;;;;;;;;;28.00;38.90;;;;;;8395855;28;19932;-44
2022/07/29 19:07:58;;;;;;;;;;;28.00;38.90;;;;;;8358103;28;19964;-47
2022/07/29 19:11:58;;;;;;;;;;;27.90;38.90;;;;;;8362961;28;19920;-44
2022/07/29 19:15:59;;;;;;;;;;;27.90;38.90;;;;;;8362579;28;19927;-44
2022/07/29 19:19:59;;;;;;;;;;;27.90;38.90;;;;;;8361955;28;19970;-46
2022/07/29 19:23:59;;;;;;;;;;;27.90;38.90;;;;;;8362306;28;20861;-46
2022/07/29 19:28:00;;;;;;;;;;;27.90;39.00;;;;;;8362612;28;19973;-47
2022/07/29 19:32:00;;;;;;;;;;;27.90;39.00;;;;;;8368119;28;19940;-45
2022/07/29 19:36:02;;;;;;;;;;;27.90;39.00;;;;;;8368532;28;19963;-47
2022/07/29 19:40:03;;;;;;;;;;;27.90;39.00;;;;;;8367980;28;20285;-46
2022/07/29 19:44:03;;;;;;;;;;;27.90;39.00;;;;;;8349542;28;19932;-45
2022/07/29 19:48:04;;;;;;;;;;;27.90;39.00;;;;;;8367834;28;20289;-46
2022/07/29 19:52:05;;;;;;;;;;;27.90;39.00;;;;;;8367871;28;19916;-46
2022/07/29 19:56:05;;;;;;;;;;;27.90;39.10;;;;;;8367251;28;19917;-46
2022/07/29 20:00:06;;;;;;;;;;;27.90;39.10;;;;;;8367503;28;19917;-45
2022/07/29 20:04:07;;;;;;;;;;;27.90;39.10;;;;;;8367269;28;20008;-46
2022/07/29 20:08:07;;;;;;;;;;;27.80;39.10;;;;;;8366715;28;20285;-46
2022/07/29 20:12:08;;;;;;;;;;;27.80;39.10;;;;;;8367217;28;19962;-44
2022/07/29 20:16:09;;;;;;;;;;;27.80;39.10;;;;;;8366856;28;19932;-45
2022/07/29 20:20:09;;;;;;;;;;;27.80;39.10;;;;;;8366395;28;20343;-44
2022/07/29 20:24:10;;;;;;;;;;;27.80;39.10;;;;;;8366778;28;19925;-45
2022/07/29 20:28:10;;;;;;;;;;;27.80;39.10;;;;;;8366591;28;20016;-44
2022/07/29 20:32:11;;;;;;;;;;;27.80;39.10;;;;;;8366276;28;20039;-45
2022/07/29 20:36:11;;;;;;;;;;;27.80;39.20;;;;;;8366206;28;19959;-44
2022/07/29 20:40:12;;;;;;;;;;;27.80;39.20;;;;;;8366170;28;20285;-45
2022/07/29 20:44:13;;;;;;;;;;;27.80;39.20;;;;;;8365447;28;20011;-44
2022/07/29 20:48:14;;;;;;;;;;;27.80;39.20;;;;;;8366378;28;19944;-45
2022/07/29 20:52:15;;;;;;;;;;;27.70;39.20;;;;;;8365849;28;20358;-45
2022/07/29 20:56:15;;;;;;;;;;;27.70;39.20;;;;;;8365129;28;19923;-45
2022/07/29 21:00:16;;;;;;;;;;;27.70;39.20;;;;;;8365541;28;19917;-45
2022/07/29 21:04:16;;;;;;;;;;;27.70;39.20;;;;;;8365554;28;20366;-45
2022/07/29 21:08:17;;;;;;;;;;;27.70;39.20;;;;;;8365035;28;19956;-45
2022/07/29 21:12:17;;;;;;;;;;;27.70;39.20;;;;;;8365110;28;19931;-45
2022/07/29 21:16:18;;;;;;;;;;;27.70;39.20;;;;;;8365180;28;20408;-45
2022/07/29 21:20:19;;;;;;;;;;;27.70;39.30;;;;;;8364503;28;19966;-45
2022/07/29 21:24:19;;;;;;;;;;;27.70;39.30;;;;;;8364944;28;19924;-44
2022/07/29 21:28:26;;;;;;;;;;;27.60;39.20;;;;;;8364905;28;19920;-45
2022/07/29 21:32:26;;;;;;;;;;;27.60;39.20;;;;;;8364136;28;19963;-44
2022/07/29 21:36:26;;;;;;;;;;;27.70;39.30;;;;;;8364755;28;20332;-43
2022/07/29 21:40:28;;;;;;;;;;;27.60;39.30;;;;;;8364417;28;19912;-44
2022/07/29 21:44:29;;;;;;;;;;;27.60;39.30;;;;;;8363602;28;20360;-47
2022/07/29 21:48:29;;;;;;;;;;;27.60;39.20;;;;;;8364595;28;19983;-45
2022/07/29 21:52:30;;;;;;;;;;;27.60;39.30;;;;;;8363647;28;19927;-45
2022/07/29 21:56:30;;;;;;;;;;;27.60;39.30;;;;;;8363497;28;19959;-43
2022/07/29 22:00:32;;;;;;;;;;;27.60;39.30;;;;;;8363883;28;19917;-46
2022/07/29 22:04:34;;;;;;;;;;;27.60;39.30;;;;;;8362816;28;20297;-46
2022/07/29 22:08:35;;;;;;;;;;;27.60;39.30;;;;;;8362793;28;20301;-45
2022/07/29 22:12:35;;;;;;;;;;;27.60;39.30;;;;;;8363755;28;20012;-45
2022/07/29 22:16:36;;;;;;;;;;;27.50;39.30;;;;;;8363952;28;20004;-46
2022/07/29 22:20:36;;;;;;;;;;;27.50;39.30;;;;;;8363010;28;20361;-46
2022/07/29 22:24:36;;;;;;;;;;;27.50;39.30;;;;;;8363306;28;19967;-45
2022/07/29 22:28:37;;;;;;;;;;;27.50;39.30;;;;;;8363436;28;20250;-46
2022/07/29 22:32:38;;;;;;;;;;;27.50;39.30;;;;;;8362670;28;19917;-46
2022/07/29 22:36:39;;;;;;;;;;;27.50;39.30;;;;;;8363414;28;19923;-45
2022/07/29 22:40:39;;;;;;;;;;;27.50;39.30;;;;;;8363109;28;20019;-46
2022/07/29 22:44:40;;;;;;;;;;;27.50;39.30;;;;;;8362527;28;19936;-46
2022/07/29 22:48:40;;;;;;;;;;;27.50;39.30;;;;;;8363345;28;20012;-45
2022/07/29 22:52:41;;;;;;;;;;;27.50;39.40;;;;;;8362472;28;20238;-44
2022/07/29 22:56:41;;;;;;;;;;;27.50;39.40;;;;;;8362817;28;19924;-46
2022/07/29 23:00:42;;;;;;;;;;;27.50;39.40;;;;;;8362687;28;20329;-47
2022/07/29 23:04:42;;;;;;;;;;;27.40;39.30;;;;;;8365188;28;19931;-46
2022/07/29 23:08:42;;;;;;;;;;;27.40;39.40;;;;;;8369487;28;19912;-46
2022/07/29 23:12:43;;;;;;;;;;;27.40;39.30;;;;;;8369522;28;19916;-43
2022/07/29 23:16:43;;;;;;;;;;;27.40;39.30;;;;;;8368502;28;19920;-46
2022/07/29 23:20:44;;;;;;;;;;;27.40;39.30;;;;;;8369073;28;19976;-46
2022/07/29 23:24:44;;;;;;;;;;;27.40;39.40;;;;;;8350828;28;19931;-46
2022/07/29 23:28:45;;;;;;;;;;;27.40;39.40;;;;;;8368349;28;19985;-47
2022/07/29 23:32:45;;;;;;;;;;;27.40;39.40;;;;;;8368464;28;20003;-45
2022/07/29 23:36:46;;;;;;;;;;;27.30;39.30;;;;;;8368346;28;19963;-47